sensor_id;sensor_type;location;lat;lon;timestamp;pressure;altitude;pressure_sealevel;temperature;humidity
6224;BME280;3145;42.726;23.342;2023-02-23T00:00:50;95221.94;;;6.26;nan
6224;BME280;3145;42.726;23.342;2023-02-23T00:03:17;95228.28;;;6.24;nan
6224;BME280;3145;42.726;23.342;2023-02-23T00:05:44;95232.78;;;6.06;nan
6224;BME280;3145;42.726;23.342;2023-02-23T00:08:12;95238.13;;;5.96;nan
6224;BME280;3145;42.726;23.342;2023-02-23T00:10:38;95236.44;;;5.87;nan
6224;BME280;3145;42.726;23.342;2023-02-23T00:13:05;95238.13;;;5.79;nan
6224;BME280;3145;42.726;23.342;2023-02-23T00:15:33;95236.72;;;5.67;nan
6224;BME280;3145;42.726;23.342;2023-02-23T00:18:00;95242.72;;;5.59;nan
6224;BME280;3145;42.726;23.342;2023-02-23T00:20:28;95240.56;;;5.55;nan
6224;BME280;3145;42.726;23.342;2023-02-23T00:22:56;95229.78;;;5.40;nan
6224;BME280;3145;42.726;23.342;2023-02-23T00:25:24;95244.31;;;5.35;nan
6224;BME280;3145;42.726;23.342;2023-02-23T00:27:51;95237.13;;;5.19;nan
6224;BME280;3145;42.726;23.342;2023-02-23T00:30:19;95246.13;;;5.17;nan
6224;BME280;3145;42.726;23.342;2023-02-23T00:32:46;95241.03;;;5.15;nan
6224;BME280;3145;42.726;23.342;2023-02-23T00:35:13;95247.06;;;5.16;nan
6224;BME280;3145;42.726;23.342;2023-02-23T00:37:44;95230.84;;;5.12;nan
6224;BME280;3145;42.726;23.342;2023-02-23T00:40:12;95240.25;;;5.23;nan
6224;BME280;3145;42.726;23.342;2023-02-23T00:42:42;95238.91;;;5.19;nan
6224;BME280;3145;42.726;23.342;2023-02-23T00:45:11;95245.06;;;5.10;nan
6224;BME280;3145;42.726;23.342;2023-02-23T00:47:39;95238.75;;;5.03;nan
6224;BME280;3145;42.726;23.342;2023-02-23T00:50:07;95243.63;;;4.97;nan
6224;BME280;3145;42.726;23.342;2023-02-23T00:52:37;95246.66;;;4.93;nan
6224;BME280;3145;42.726;23.342;2023-02-23T00:55:05;95244.06;;;4.93;nan
6224;BME280;3145;42.726;23.342;2023-02-23T00:57:32;95216.88;;;4.76;nan
6224;BME280;3145;42.726;23.342;2023-02-23T01:00:00;95230.38;;;4.81;nan
6224;BME280;3145;42.726;23.342;2023-02-23T01:02:37;95238.59;;;4.86;nan
6224;BME280;3145;42.726;23.342;2023-02-23T01:05:04;95233.63;;;4.83;nan
6224;BME280;3145;42.726;23.342;2023-02-23T01:07:31;95236.78;;;4.69;nan
6224;BME280;3145;42.726;23.342;2023-02-23T01:09:58;95236.78;;;4.69;nan
6224;BME280;3145;42.726;23.342;2023-02-23T01:12:24;95240.03;;;4.71;nan
6224;BME280;3145;42.726;23.342;2023-02-23T01:14:51;95196.28;;;4.46;nan
6224;BME280;3145;42.726;23.342;2023-02-23T01:17:19;95234.81;;;4.71;nan
6224;BME280;3145;42.726;23.342;2023-02-23T01:19:46;95201.59;;;4.54;nan
6224;BME280;3145;42.726;23.342;2023-02-23T01:22:13;95238.13;;;4.73;nan
6224;BME280;3145;42.726;23.342;2023-02-23T01:24:39;95234.66;;;4.73;nan
6224;BME280;3145;42.726;23.342;2023-02-23T01:27:07;95236.63;;;4.71;nan
6224;BME280;3145;42.726;23.342;2023-02-23T01:29:34;95227.34;;;4.76;nan
6224;BME280;3145;42.726;23.342;2023-02-23T01:32:00;95219.41;;;4.68;nan
6224;BME280;3145;42.726;23.342;2023-02-23T01:34:28;95220.22;;;4.69;nan
6224;BME280;3145;42.726;23.342;2023-02-23T01:36:55;95214.47;;;4.65;nan
6224;BME280;3145;42.726;23.342;2023-02-23T01:39:22;95230.94;;;4.75;nan
6224;BME280;3145;42.726;23.342;2023-02-23T01:41:48;95233.56;;;4.75;nan
6224;BME280;3145;42.726;23.342;2023-02-23T01:47:22;95233.16;;;4.70;nan
6224;BME280;3145;42.726;23.342;2023-02-23T01:49:52;95231.97;;;4.65;nan
6224;BME280;3145;42.726;23.342;2023-02-23T01:52:19;95230.47;;;4.62;nan
6224;BME280;3145;42.726;23.342;2023-02-23T01:54:49;95233.22;;;4.61;nan
6224;BME280;3145;42.726;23.342;2023-02-23T01:57:19;95228.13;;;4.59;nan
6224;BME280;3145;42.726;23.342;2023-02-23T01:59:50;95229.09;;;4.58;nan
6224;BME280;3145;42.726;23.342;2023-02-23T02:02:20;95226.13;;;4.53;nan
6224;BME280;3145;42.726;23.342;2023-02-23T02:04:47;95223.50;;;4.53;nan
6224;BME280;3145;42.726;23.342;2023-02-23T02:07:20;95227.38;;;4.49;nan
6224;BME280;3145;42.726;23.342;2023-02-23T02:09:48;95231.91;;;4.47;nan
6224;BME280;3145;42.726;23.342;2023-02-23T02:12:51;95224.91;;;4.48;nan
6224;BME280;3145;42.726;23.342;2023-02-23T02:15:22;95226.97;;;4.44;nan
6224;BME280;3145;42.726;23.342;2023-02-23T02:17:56;95221.72;;;4.44;nan
6224;BME280;3145;42.726;23.342;2023-02-23T02:24:05;95224.25;;;4.36;nan
6224;BME280;3145;42.726;23.342;2023-02-23T02:26:48;95225.50;;;4.32;nan
6224;BME280;3145;42.726;23.342;2023-02-23T02:32:58;95233.66;;;4.29;nan
6224;BME280;3145;42.726;23.342;2023-02-23T02:36:16;95228.72;;;4.26;nan
6224;BME280;3145;42.726;23.342;2023-02-23T02:38:52;95227.34;;;4.22;nan
6224;BME280;3145;42.726;23.342;2023-02-23T02:41:30;95222.69;;;4.16;nan
6224;BME280;3145;42.726;23.342;2023-02-23T02:44:08;95226.38;;;4.23;nan
6224;BME280;3145;42.726;23.342;2023-02-23T02:46:39;95234.81;;;4.17;nan
6224;BME280;3145;42.726;23.342;2023-02-23T02:49:13;95222.69;;;4.16;nan
6224;BME280;3145;42.726;23.342;2023-02-23T02:51:45;95211.44;;;4.06;nan
6224;BME280;3145;42.726;23.342;2023-02-23T02:54:19;95233.44;;;4.13;nan
6224;BME280;3145;42.726;23.342;2023-02-23T02:56:49;95228.78;;;4.07;nan
6224;BME280;3145;42.726;23.342;2023-02-23T02:59:19;95218.31;;;4.07;nan
6224;BME280;3145;42.726;23.342;2023-02-23T03:02:04;95217.81;;;3.94;nan
6224;BME280;3145;42.726;23.342;2023-02-23T03:04:48;95223.56;;;3.98;nan
6224;BME280;3145;42.726;23.342;2023-02-23T03:07:35;95224.03;;;3.93;nan
6224;BME280;3145;42.726;23.342;2023-02-23T03:10:32;95225.09;;;3.91;nan
6224;BME280;3145;42.726;23.342;2023-02-23T03:13:27;95227.72;;;3.91;nan
6224;BME280;3145;42.726;23.342;2023-02-23T03:16:21;95213.47;;;3.85;nan
6224;BME280;3145;42.726;23.342;2023-02-23T03:19:13;95226.22;;;3.88;nan
6224;BME280;3145;42.726;23.342;2023-02-23T03:22:06;95211.28;;;3.71;nan
6224;BME280;3145;42.726;23.342;2023-02-23T03:24:56;95228.03;;;3.88;nan
6224;BME280;3145;42.726;23.342;2023-02-23T03:27:49;95232.41;;;3.87;nan
6224;BME280;3145;42.726;23.342;2023-02-23T03:30:40;95206.31;;;3.68;nan
6224;BME280;3145;42.726;23.342;2023-02-23T03:33:31;95235.44;;;3.83;nan
6224;BME280;3145;42.726;23.342;2023-02-23T03:36:21;95240.66;;;3.83;nan
6224;BME280;3145;42.726;23.342;2023-02-23T03:39:14;95239.59;;;3.85;nan
6224;BME280;3145;42.726;23.342;2023-02-23T03:42:04;95234.66;;;3.73;nan
6224;BME280;3145;42.726;23.342;2023-02-23T03:44:51;95152.00;;;3.26;nan
6224;BME280;3145;42.726;23.342;2023-02-23T03:47:39;95239.44;;;3.77;nan
6224;BME280;3145;42.726;23.342;2023-02-23T03:50:30;95247.28;;;3.77;nan
6224;BME280;3145;42.726;23.342;2023-02-23T03:53:19;95250.72;;;3.78;nan
6224;BME280;3145;42.726;23.342;2023-02-23T03:56:07;95249.88;;;3.77;nan
6224;BME280;3145;42.726;23.342;2023-02-23T03:58:57;95254.97;;;3.79;nan
6224;BME280;3145;42.726;23.342;2023-02-23T04:01:44;95242.63;;;3.71;nan
6224;BME280;3145;42.726;23.342;2023-02-23T04:04:29;95250.59;;;3.79;nan
6224;BME280;3145;42.726;23.342;2023-02-23T04:07:16;95226.13;;;3.61;nan
6224;BME280;3145;42.726;23.342;2023-02-23T04:10:02;95255.28;;;3.76;nan
6224;BME280;3145;42.726;23.342;2023-02-23T04:12:54;95245.63;;;3.76;nan
6224;BME280;3145;42.726;23.342;2023-02-23T04:15:43;95250.03;;;3.85;nan
6224;BME280;3145;42.726;23.342;2023-02-23T04:18:15;95258.41;;;3.89;nan
6224;BME280;3145;42.726;23.342;2023-02-23T04:20:42;95252.34;;;3.88;nan
6224;BME280;3145;42.726;23.342;2023-02-23T04:23:09;95258.25;;;3.90;nan
6224;BME280;3145;42.726;23.342;2023-02-23T04:25:36;95211.94;;;3.73;nan
6224;BME280;3145;42.726;23.342;2023-02-23T04:28:02;95256.03;;;3.95;nan
6224;BME280;3145;42.726;23.342;2023-02-23T04:30:29;95251.09;;;3.92;nan
6224;BME280;3145;42.726;23.342;2023-02-23T04:32:56;95240.13;;;3.79;nan
6224;BME280;3145;42.726;23.342;2023-02-23T04:35:27;95250.53;;;3.98;nan
6224;BME280;3145;42.726;23.342;2023-02-23T04:37:56;95259.59;;;4.13;nan
6224;BME280;3145;42.726;23.342;2023-02-23T04:40:23;95249.94;;;4.14;nan
6224;BME280;3145;42.726;23.342;2023-02-23T04:42:50;95244.47;;;3.98;nan
6224;BME280;3145;42.726;23.342;2023-02-23T04:45:17;95257.53;;;3.98;nan
6224;BME280;3145;42.726;23.342;2023-02-23T04:47:44;95038.94;;;2.60;nan
6224;BME280;3145;42.726;23.342;2023-02-23T04:50:11;95257.56;;;3.88;nan
6224;BME280;3145;42.726;23.342;2023-02-23T04:52:39;95253.06;;;3.81;nan
6224;BME280;3145;42.726;23.342;2023-02-23T04:55:07;95253.34;;;3.78;nan
6224;BME280;3145;42.726;23.342;2023-02-23T04:57:34;95260.19;;;3.69;nan
6224;BME280;3145;42.726;23.342;2023-02-23T05:00:01;95264.06;;;3.65;nan
6224;BME280;3145;42.726;23.342;2023-02-23T05:02:29;95264.91;;;3.66;nan
6224;BME280;3145;42.726;23.342;2023-02-23T05:04:56;95264.22;;;3.54;nan
6224;BME280;3145;42.726;23.342;2023-02-23T05:07:23;95260.53;;;3.47;nan
6224;BME280;3145;42.726;23.342;2023-02-23T05:09:51;95263.25;;;3.36;nan
6224;BME280;3145;42.726;23.342;2023-02-23T05:12:17;95261.09;;;3.22;nan
6224;BME280;3145;42.726;23.342;2023-02-23T05:14:45;95254.50;;;3.18;nan
6224;BME280;3145;42.726;23.342;2023-02-23T05:17:11;95269.06;;;3.30;nan
6224;BME280;3145;42.726;23.342;2023-02-23T05:19:38;95268.78;;;3.24;nan
6224;BME280;3145;42.726;23.342;2023-02-23T05:22:05;95272.72;;;2.99;nan
6224;BME280;3145;42.726;23.342;2023-02-23T05:24:32;95269.25;;;2.89;nan
6224;BME280;3145;42.726;23.342;2023-02-23T05:27:00;95245.09;;;2.78;nan
6224;BME280;3145;42.726;23.342;2023-02-23T05:29:27;95276.59;;;3.14;nan
6224;BME280;3145;42.726;23.342;2023-02-23T05:31:53;95280.31;;;3.59;nan
6224;BME280;3145;42.726;23.342;2023-02-23T05:34:20;95274.59;;;3.92;nan
6224;BME280;3145;42.726;23.342;2023-02-23T05:36:47;95261.97;;;3.97;nan
6224;BME280;3145;42.726;23.342;2023-02-23T05:39:13;95278.50;;;4.34;nan
6224;BME280;3145;42.726;23.342;2023-02-23T05:41:40;95286.91;;;4.65;nan
6224;BME280;3145;42.726;23.342;2023-02-23T05:44:08;95282.78;;;4.89;nan
6224;BME280;3145;42.726;23.342;2023-02-23T05:46:35;95280.59;;;5.12;nan
6224;BME280;3145;42.726;23.342;2023-02-23T05:49:01;95284.88;;;5.31;nan
6224;BME280;3145;42.726;23.342;2023-02-23T05:51:30;95305.00;;;5.65;nan
6224;BME280;3145;42.726;23.342;2023-02-23T05:53:57;95299.56;;;5.94;nan
6224;BME280;3145;42.726;23.342;2023-02-23T05:56:24;95294.53;;;6.26;nan
6224;BME280;3145;42.726;23.342;2023-02-23T05:58:52;95310.91;;;6.79;nan
6224;BME280;3145;42.726;23.342;2023-02-23T06:01:21;95310.94;;;7.28;nan
6224;BME280;3145;42.726;23.342;2023-02-23T06:03:48;95311.88;;;7.77;nan
6224;BME280;3145;42.726;23.342;2023-02-23T06:06:15;95316.16;;;8.18;nan
6224;BME280;3145;42.726;23.342;2023-02-23T06:08:42;95310.06;;;8.57;nan
6224;BME280;3145;42.726;23.342;2023-02-23T06:11:09;95320.97;;;9.01;nan
6224;BME280;3145;42.726;23.342;2023-02-23T06:13:36;95317.88;;;9.36;nan
6224;BME280;3145;42.726;23.342;2023-02-23T06:16:04;95309.09;;;9.74;nan
6224;BME280;3145;42.726;23.342;2023-02-23T06:18:32;95329.28;;;9.59;nan
6224;BME280;3145;42.726;23.342;2023-02-23T06:21:00;95321.19;;;9.30;nan
6224;BME280;3145;42.726;23.342;2023-02-23T06:23:29;95326.28;;;8.85;nan
6224;BME280;3145;42.726;23.342;2023-02-23T06:25:55;95333.91;;;9.18;nan
6224;BME280;3145;42.726;23.342;2023-02-23T06:28:23;95332.16;;;9.72;nan
6224;BME280;3145;42.726;23.342;2023-02-23T06:30:51;95336.69;;;10.17;nan
6224;BME280;3145;42.726;23.342;2023-02-23T06:33:18;95333.25;;;10.53;nan
6224;BME280;3145;42.726;23.342;2023-02-23T06:35:46;95332.44;;;10.67;nan
6224;BME280;3145;42.726;23.342;2023-02-23T06:38:13;95318.53;;;10.73;nan
6224;BME280;3145;42.726;23.342;2023-02-23T06:40:39;95342.69;;;10.99;nan
6224;BME280;3145;42.726;23.342;2023-02-23T06:43:07;95331.75;;;11.17;nan
6224;BME280;3145;42.726;23.342;2023-02-23T06:45:34;95342.31;;;11.46;nan
6224;BME280;3145;42.726;23.342;2023-02-23T06:48:01;95344.59;;;11.63;nan
6224;BME280;3145;42.726;23.342;2023-02-23T06:50:28;95335.97;;;11.90;nan
6224;BME280;3145;42.726;23.342;2023-02-23T06:52:56;95343.28;;;11.88;nan
6224;BME280;3145;42.726;23.342;2023-02-23T06:55:23;95341.94;;;12.13;nan
6224;BME280;3145;42.726;23.342;2023-02-23T06:57:50;95346.00;;;12.37;nan
6224;BME280;3145;42.726;23.342;2023-02-23T07:00:18;95342.69;;;12.49;nan
6224;BME280;3145;42.726;23.342;2023-02-23T07:02:45;95338.75;;;12.66;nan
6224;BME280;3145;42.726;23.342;2023-02-23T07:05:12;95340.31;;;13.09;nan
6224;BME280;3145;42.726;23.342;2023-02-23T07:07:38;95345.41;;;13.45;nan
6224;BME280;3145;42.726;23.342;2023-02-23T07:10:08;95320.88;;;13.36;nan
6224;BME280;3145;42.726;23.342;2023-02-23T07:12:34;95338.63;;;13.70;nan
6224;BME280;3145;42.726;23.342;2023-02-23T07:15:01;95319.22;;;13.76;nan
6224;BME280;3145;42.726;23.342;2023-02-23T07:17:28;95333.00;;;14.06;nan
6224;BME280;3145;42.726;23.342;2023-02-23T07:19:55;95286.38;;;13.83;nan
6224;BME280;3145;42.726;23.342;2023-02-23T07:22:21;95337.19;;;14.41;nan
6224;BME280;3145;42.726;23.342;2023-02-23T07:24:49;95339.47;;;14.57;nan
6224;BME280;3145;42.726;23.342;2023-02-23T07:27:17;95345.75;;;14.23;nan
6224;BME280;3145;42.726;23.342;2023-02-23T07:29:44;95345.38;;;14.52;nan
6224;BME280;3145;42.726;23.342;2023-02-23T07:32:11;95246.34;;;13.92;nan
6224;BME280;3145;42.726;23.342;2023-02-23T07:34:37;95315.34;;;14.91;nan
6224;BME280;3145;42.726;23.342;2023-02-23T07:37:04;95322.28;;;15.05;nan
6224;BME280;3145;42.726;23.342;2023-02-23T07:39:31;95329.25;;;14.80;nan
6224;BME280;3145;42.726;23.342;2023-02-23T07:41:57;95333.53;;;14.94;nan
6224;BME280;3145;42.726;23.342;2023-02-23T07:44:26;95329.25;;;14.73;nan
6224;BME280;3145;42.726;23.342;2023-02-23T07:46:52;95329.03;;;14.68;nan
6224;BME280;3145;42.726;23.342;2023-02-23T07:49:19;95291.72;;;14.10;nan
6224;BME280;3145;42.726;23.342;2023-02-23T07:51:46;95316.75;;;14.35;nan
6224;BME280;3145;42.726;23.342;2023-02-23T07:54:12;95318.00;;;14.52;nan
6224;BME280;3145;42.726;23.342;2023-02-23T07:56:40;95303.88;;;14.45;nan
6224;BME280;3145;42.726;23.342;2023-02-23T07:59:06;95313.91;;;14.95;nan
6224;BME280;3145;42.726;23.342;2023-02-23T08:01:34;95313.06;;;15.20;nan
6224;BME280;3145;42.726;23.342;2023-02-23T08:04:02;95311.81;;;15.36;nan
6224;BME280;3145;42.726;23.342;2023-02-23T08:06:29;95320.59;;;15.49;nan
6224;BME280;3145;42.726;23.342;2023-02-23T08:08:57;95325.81;;;15.75;nan
6224;BME280;3145;42.726;23.342;2023-02-23T08:11:24;95318.75;;;16.00;nan
6224;BME280;3145;42.726;23.342;2023-02-23T08:13:53;95316.59;;;15.78;nan
6224;BME280;3145;42.726;23.342;2023-02-23T08:16:20;95299.38;;;15.80;nan
6224;BME280;3145;42.726;23.342;2023-02-23T08:18:49;95301.22;;;16.17;nan
6224;BME280;3145;42.726;23.342;2023-02-23T08:21:15;95311.91;;;16.11;nan
6224;BME280;3145;42.726;23.342;2023-02-23T08:23:42;95319.97;;;15.54;nan
6224;BME280;3145;42.726;23.342;2023-02-23T08:26:09;95319.50;;;15.70;nan
6224;BME280;3145;42.726;23.342;2023-02-23T08:28:36;95322.16;;;15.70;nan
6224;BME280;3145;42.726;23.342;2023-02-23T08:31:08;95312.25;;;15.90;nan
6224;BME280;3145;42.726;23.342;2023-02-23T08:33:35;95311.19;;;15.91;nan
6224;BME280;3145;42.726;23.342;2023-02-23T08:36:05;95312.38;;;16.01;nan
6224;BME280;3145;42.726;23.342;2023-02-23T08:38:31;95294.72;;;16.07;nan
6224;BME280;3145;42.726;23.342;2023-02-23T08:41:01;95287.56;;;15.57;nan
6224;BME280;3145;42.726;23.342;2023-02-23T08:43:28;95299.69;;;15.97;nan
6224;BME280;3145;42.726;23.342;2023-02-23T08:45:55;95294.69;;;15.69;nan
6224;BME280;3145;42.726;23.342;2023-02-23T08:48:21;95295.78;;;15.49;nan
6224;BME280;3145;42.726;23.342;2023-02-23T08:50:49;95274.78;;;15.15;nan
6224;BME280;3145;42.726;23.342;2023-02-23T08:53:17;95309.75;;;15.25;nan
6224;BME280;3145;42.726;23.342;2023-02-23T08:55:44;95310.97;;;15.35;nan
6224;BME280;3145;42.726;23.342;2023-02-23T08:58:10;95304.06;;;14.89;nan
6224;BME280;3145;42.726;23.342;2023-02-23T09:00:37;95297.94;;;14.62;nan
6224;BME280;3145;42.726;23.342;2023-02-23T09:03:05;95310.78;;;15.37;nan
6224;BME280;3145;42.726;23.342;2023-02-23T09:05:32;95304.59;;;15.49;nan
6224;BME280;3145;42.726;23.342;2023-02-23T09:08:01;95280.66;;;15.30;nan
6224;BME280;3145;42.726;23.342;2023-02-23T09:10:30;95296.09;;;15.08;nan
6224;BME280;3145;42.726;23.342;2023-02-23T09:12:57;95295.88;;;14.64;nan
6224;BME280;3145;42.726;23.342;2023-02-23T09:15:24;95302.00;;;15.10;nan
6224;BME280;3145;42.726;23.342;2023-02-23T09:17:51;95296.81;;;15.48;nan
6224;BME280;3145;42.726;23.342;2023-02-23T09:20:19;95297.03;;;15.33;nan
6224;BME280;3145;42.726;23.342;2023-02-23T09:22:51;95293.91;;;15.56;nan
6224;BME280;3145;42.726;23.342;2023-02-23T09:25:18;95263.47;;;15.26;nan
6224;BME280;3145;42.726;23.342;2023-02-23T09:27:48;95296.00;;;15.47;nan
6224;BME280;3145;42.726;23.342;2023-02-23T09:30:16;95294.09;;;15.61;nan
6224;BME280;3145;42.726;23.342;2023-02-23T09:32:45;95289.66;;;15.92;nan
6224;BME280;3145;42.726;23.342;2023-02-23T09:35:12;95238.38;;;15.59;nan
6224;BME280;3145;42.726;23.342;2023-02-23T09:37:42;95296.72;;;16.18;nan
6224;BME280;3145;42.726;23.342;2023-02-23T09:40:14;95275.44;;;16.05;nan
6224;BME280;3145;42.726;23.342;2023-02-23T09:42:45;95295.00;;;16.30;nan
6224;BME280;3145;42.726;23.342;2023-02-23T09:45:23;95297.84;;;16.66;nan
6224;BME280;3145;42.726;23.342;2023-02-23T09:48:04;95271.19;;;16.84;nan
6224;BME280;3145;42.726;23.342;2023-02-23T09:50:33;95283.88;;;17.13;nan
6224;BME280;3145;42.726;23.342;2023-02-23T09:53:06;95286.13;;;16.67;nan
6224;BME280;3145;42.726;23.342;2023-02-23T09:55:34;95249.50;;;16.18;nan
6224;BME280;3145;42.726;23.342;2023-02-23T09:58:07;95288.25;;;16.21;nan
6224;BME280;3145;42.726;23.342;2023-02-23T10:00:46;95255.91;;;15.80;nan
6224;BME280;3145;42.726;23.342;2023-02-23T10:03:22;95257.09;;;16.21;nan
6224;BME280;3145;42.726;23.342;2023-02-23T10:05:56;95160.84;;;15.74;nan
6224;BME280;3145;42.726;23.342;2023-02-23T10:08:36;95258.56;;;16.48;nan
6224;BME280;3145;42.726;23.342;2023-02-23T10:11:13;95275.53;;;17.03;nan
6224;BME280;3145;42.726;23.342;2023-02-23T10:13:50;95240.25;;;17.19;nan
6224;BME280;3145;42.726;23.342;2023-02-23T10:16:30;95256.72;;;17.34;nan
6224;BME280;3145;42.726;23.342;2023-02-23T10:19:05;95264.22;;;17.07;nan
6224;BME280;3145;42.726;23.342;2023-02-23T10:21:39;95266.09;;;17.43;nan
6224;BME280;3145;42.726;23.342;2023-02-23T10:24:11;95264.53;;;17.35;nan
6224;BME280;3145;42.726;23.342;2023-02-23T10:26:41;95245.75;;;16.81;nan
6224;BME280;3145;42.726;23.342;2023-02-23T10:29:20;95261.78;;;16.81;nan
6224;BME280;3145;42.726;23.342;2023-02-23T10:31:53;95214.72;;;16.62;nan
6224;BME280;3145;42.726;23.342;2023-02-23T10:34:23;95210.44;;;17.22;nan
6224;BME280;3145;42.726;23.342;2023-02-23T10:36:56;95210.44;;;17.58;nan
6224;BME280;3145;42.726;23.342;2023-02-23T10:39:24;95210.38;;;17.76;nan
6224;BME280;3145;42.726;23.342;2023-02-23T10:41:52;95240.53;;;18.42;nan
6224;BME280;3145;42.726;23.342;2023-02-23T10:44:21;95177.47;;;18.46;nan
6224;BME280;3145;42.726;23.342;2023-02-23T10:46:54;95191.59;;;17.82;nan
6224;BME280;3145;42.726;23.342;2023-02-23T10:49:27;95204.91;;;18.00;nan
6224;BME280;3145;42.726;23.342;2023-02-23T10:51:55;95211.16;;;18.24;nan
6224;BME280;3145;42.726;23.342;2023-02-23T10:54:38;95213.44;;;18.09;nan
6224;BME280;3145;42.726;23.342;2023-02-23T10:57:10;95225.78;;;17.92;nan
6224;BME280;3145;42.726;23.342;2023-02-23T10:59:40;95209.78;;;18.33;nan
6224;BME280;3145;42.726;23.342;2023-02-23T11:02:23;95138.78;;;18.08;nan
6224;BME280;3145;42.726;23.342;2023-02-23T11:04:52;95204.22;;;18.46;nan
6224;BME280;3145;42.726;23.342;2023-02-23T11:07:22;95196.94;;;18.12;nan
6224;BME280;3145;42.726;23.342;2023-02-23T11:09:49;95192.84;;;18.62;nan
6224;BME280;3145;42.726;23.342;2023-02-23T11:12:19;95202.25;;;19.22;nan
6224;BME280;3145;42.726;23.342;2023-02-23T11:14:48;95195.03;;;19.46;nan
6224;BME280;3145;42.726;23.342;2023-02-23T11:17:29;95170.66;;;19.47;nan
6224;BME280;3145;42.726;23.342;2023-02-23T11:20:02;95190.63;;;19.68;nan
6224;BME280;3145;42.726;23.342;2023-02-23T11:22:35;95070.16;;;18.13;nan
6224;BME280;3145;42.726;23.342;2023-02-23T11:25:13;95191.44;;;18.94;nan
6224;BME280;3145;42.726;23.342;2023-02-23T11:27:45;95189.34;;;18.85;nan
6224;BME280;3145;42.726;23.342;2023-02-23T11:30:19;95169.81;;;18.08;nan
6224;BME280;3145;42.726;23.342;2023-02-23T11:32:52;95175.59;;;18.35;nan
6224;BME280;3145;42.726;23.342;2023-02-23T11:35:29;95176.88;;;18.67;nan
6224;BME280;3145;42.726;23.342;2023-02-23T11:37:56;95162.00;;;18.07;nan
6224;BME280;3145;42.726;23.342;2023-02-23T11:40:24;95166.91;;;18.10;nan
6224;BME280;3145;42.726;23.342;2023-02-23T11:42:54;95173.69;;;18.24;nan
6224;BME280;3145;42.726;23.342;2023-02-23T11:45:22;95169.59;;;18.10;nan
6224;BME280;3145;42.726;23.342;2023-02-23T11:47:53;95164.66;;;17.95;nan
6224;BME280;3145;42.726;23.342;2023-02-23T11:50:25;95167.25;;;18.02;nan
6224;BME280;3145;42.726;23.342;2023-02-23T11:53:01;95163.59;;;17.85;nan
6224;BME280;3145;42.726;23.342;2023-02-23T11:55:30;95156.22;;;17.69;nan
6224;BME280;3145;42.726;23.342;2023-02-23T11:58:20;95151.00;;;17.74;nan
6224;BME280;3145;42.726;23.342;2023-02-23T12:00:56;95156.91;;;17.76;nan
6224;BME280;3145;42.726;23.342;2023-02-23T12:03:26;95114.63;;;17.73;nan
6224;BME280;3145;42.726;23.342;2023-02-23T12:05:55;95090.66;;;17.37;nan
6224;BME280;3145;42.726;23.342;2023-02-23T12:08:32;95144.97;;;17.31;nan
6224;BME280;3145;42.726;23.342;2023-02-23T12:11:03;95154.28;;;17.46;nan
6224;BME280;3145;42.726;23.342;2023-02-23T12:13:34;95144.81;;;17.62;nan
6224;BME280;3145;42.726;23.342;2023-02-23T12:16:05;95140.03;;;17.64;nan
6224;BME280;3145;42.726;23.342;2023-02-23T12:18:44;95065.78;;;17.07;nan
6224;BME280;3145;42.726;23.342;2023-02-23T12:21:22;95146.09;;;17.41;nan
6224;BME280;3145;42.726;23.342;2023-02-23T12:26:49;95112.44;;;17.52;nan
6224;BME280;3145;42.726;23.342;2023-02-23T12:29:22;95005.47;;;17.17;nan
6224;BME280;3145;42.726;23.342;2023-02-23T12:31:56;95132.09;;;17.87;nan
6224;BME280;3145;42.726;23.342;2023-02-23T12:34:32;95136.38;;;17.76;nan
6224;BME280;3145;42.726;23.342;2023-02-23T12:37:03;95135.69;;;17.81;nan
6224;BME280;3145;42.726;23.342;2023-02-23T12:39:40;95112.41;;;17.40;nan
6224;BME280;3145;42.726;23.342;2023-02-23T12:42:13;95138.38;;;17.33;nan
6224;BME280;3145;42.726;23.342;2023-02-23T12:44:45;95132.06;;;17.28;nan
6224;BME280;3145;42.726;23.342;2023-02-23T12:47:22;95134.19;;;17.37;nan
6224;BME280;3145;42.726;23.342;2023-02-23T12:49:58;95114.84;;;17.24;nan
6224;BME280;3145;42.726;23.342;2023-02-23T12:52:33;95129.75;;;17.49;nan
6224;BME280;3145;42.726;23.342;2023-02-23T12:55:02;95128.66;;;17.68;nan
6224;BME280;3145;42.726;23.342;2023-02-23T12:57:33;95124.59;;;17.66;nan
6224;BME280;3145;42.726;23.342;2023-02-23T13:00:16;95115.84;;;17.59;nan
6224;BME280;3145;42.726;23.342;2023-02-23T13:05:47;95107.31;;;17.80;nan
6224;BME280;3145;42.726;23.342;2023-02-23T13:08:23;95122.66;;;17.73;nan
6224;BME280;3145;42.726;23.342;2023-02-23T13:10:56;95118.63;;;17.52;nan
6224;BME280;3145;42.726;23.342;2023-02-23T13:13:32;95119.28;;;17.48;nan
6224;BME280;3145;42.726;23.342;2023-02-23T13:16:08;95121.38;;;17.46;nan
6224;BME280;3145;42.726;23.342;2023-02-23T13:18:41;95101.56;;;17.06;nan
6224;BME280;3145;42.726;23.342;2023-02-23T13:21:18;95115.28;;;17.39;nan
6224;BME280;3145;42.726;23.342;2023-02-23T13:23:54;95119.31;;;17.30;nan
6224;BME280;3145;42.726;23.342;2023-02-23T13:26:29;95082.97;;;17.29;nan
6224;BME280;3145;42.726;23.342;2023-02-23T13:29:02;95055.72;;;17.09;nan
6224;BME280;3145;42.726;23.342;2023-02-23T13:31:33;95088.03;;;17.19;nan
6224;BME280;3145;42.726;23.342;2023-02-23T13:34:02;95110.78;;;17.39;nan
6224;BME280;3145;42.726;23.342;2023-02-23T13:36:32;95108.53;;;17.54;nan
6224;BME280;3145;42.726;23.342;2023-02-23T13:39:14;95113.31;;;17.64;nan
6224;BME280;3145;42.726;23.342;2023-02-23T13:41:51;95115.38;;;17.50;nan
6224;BME280;3145;42.726;23.342;2023-02-23T13:44:26;95071.81;;;17.32;nan
6224;BME280;3145;42.726;23.342;2023-02-23T13:46:59;95085.59;;;17.47;nan
6224;BME280;3145;42.726;23.342;2023-02-23T13:49:36;95119.00;;;17.38;nan
6224;BME280;3145;42.726;23.342;2023-02-23T13:52:27;95104.91;;;17.31;nan
6224;BME280;3145;42.726;23.342;2023-02-23T13:54:56;95073.63;;;17.20;nan
6224;BME280;3145;42.726;23.342;2023-02-23T13:57:28;95123.41;;;17.62;nan
6224;BME280;3145;42.726;23.342;2023-02-23T13:59:56;95119.25;;;17.18;nan
6224;BME280;3145;42.726;23.342;2023-02-23T14:02:32;95118.75;;;17.10;nan
6224;BME280;3145;42.726;23.342;2023-02-23T14:05:06;95109.88;;;16.98;nan
6224;BME280;3145;42.726;23.342;2023-02-23T14:07:44;95093.94;;;16.55;nan
6224;BME280;3145;42.726;23.342;2023-02-23T14:10:17;95125.88;;;16.62;nan
6224;BME280;3145;42.726;23.342;2023-02-23T14:13:04;95126.22;;;16.23;nan
6224;BME280;3145;42.726;23.342;2023-02-23T14:15:41;95131.81;;;15.90;nan
6224;BME280;3145;42.726;23.342;2023-02-23T14:18:29;95120.69;;;15.44;nan